Time;durP1;ratioP1;P1;durP2;ratioP2;P2;SDS_P1;SDS_P2;PMS_P1;PMS_P2;Temp;Humidity;BMP_temperature;BMP_pressure;BME280_temperature;BME280_humidity;BME280_pressure;Samples;Min_cycle;Max_cycle;Signal;HPM_P1;HPM_P2
2022/07/07 00:01:36;;;;;;;7.90;2.80;;;;;;;;;;5006179;28;20046;-76
2022/07/07 00:04:02;;;;;;;5.07;2.83;;;;;;;;;;5011750;28;20658;-76
2022/07/07 00:06:29;;;;;;;5.13;2.90;;;;;;;;;;5009378;28;20049;-75
2022/07/07 00:08:55;;;;;;;6.53;2.90;;;;;;;;;;5008022;28;20052;-75
2022/07/07 00:11:21;;;;;;;7.28;2.95;;;;;;;;;;5003846;28;20056;-75
2022/07/07 00:13:47;;;;;;;7.60;2.60;;;;;;;;;;5007290;28;20084;-75
2022/07/07 00:16:13;;;;;;;8.27;3.30;;;;;;;;;;5008635;28;20092;-75
2022/07/07 00:18:40;;;;;;;7.15;3.03;;;;;;;;;;5001544;28;20112;-74
2022/07/07 00:21:06;;;;;;;7.95;2.83;;;;;;;;;;5009970;28;20061;-75
2022/07/07 00:23:32;;;;;;;6.95;3.00;;;;;;;;;;5010611;28;20504;-75
2022/07/07 00:25:58;;;;;;;7.97;2.90;;;;;;;;;;5015723;28;20045;-75
2022/07/07 00:28:24;;;;;;;10.93;3.05;;;;;;;;;;5008856;28;20046;-75
2022/07/07 00:30:50;;;;;;;4.95;2.70;;;;;;;;;;5003303;28;20100;-74
2022/07/07 00:33:16;;;;;;;8.82;3.08;;;;;;;;;;5011710;28;20082;-74
2022/07/07 00:35:42;;;;;;;9.77;3.28;;;;;;;;;;5005798;28;20401;-73
2022/07/07 00:38:08;;;;;;;9.82;3.38;;;;;;;;;;5003520;28;20586;-74
2022/07/07 00:40:35;;;;;;;11.02;3.28;;;;;;;;;;5009784;28;20136;-75
2022/07/07 00:43:01;;;;;;;13.85;3.38;;;;;;;;;;5017161;28;20046;-75
2022/07/07 00:45:27;;;;;;;7.82;3.67;;;;;;;;;;5009302;28;20056;-75
2022/07/07 00:47:53;;;;;;;8.60;3.05;;;;;;;;;;5010353;28;20038;-75
2022/07/07 00:50:19;;;;;;;7.93;3.30;;;;;;;;;;5009621;28;20125;-75
2022/07/07 00:52:46;;;;;;;14.00;3.72;;;;;;;;;;5006473;28;20076;-75
2022/07/07 00:55:12;;;;;;;8.27;3.08;;;;;;;;;;5014756;28;20049;-75
2022/07/07 00:57:38;;;;;;;9.63;3.38;;;;;;;;;;5012347;28;20079;-75
2022/07/07 01:00:09;;;;;;;10.93;3.55;;;;;;;;;;5001314;28;20559;-75
2022/07/07 01:02:35;;;;;;;8.57;3.60;;;;;;;;;;5006922;28;20045;-75
2022/07/07 01:05:03;;;;;;;11.63;3.80;;;;;;;;;;5005876;28;20041;-75
2022/07/07 01:07:29;;;;;;;8.40;3.22;;;;;;;;;;5006472;28;20218;-75
2022/07/07 01:09:56;;;;;;;12.88;3.83;;;;;;;;;;4999948;28;20053;-75
2022/07/07 01:12:22;;;;;;;8.98;3.25;;;;;;;;;;5007087;28;20034;-75
2022/07/07 01:14:49;;;;;;;6.80;2.17;;;;;;;;;;5009487;28;20482;-75
2022/07/07 01:17:15;;;;;;;5.65;2.40;;;;;;;;;;5002879;28;20087;-75
2022/07/07 01:19:41;;;;;;;8.18;2.42;;;;;;;;;;5012195;28;20042;-75
2022/07/07 01:22:12;;;;;;;4.55;2.15;;;;;;;;;;5006497;28;20041;-75
2022/07/07 01:24:38;;;;;;;6.35;2.25;;;;;;;;;;5001371;28;20054;-75
2022/07/07 01:27:06;;;;;;;7.18;2.20;;;;;;;;;;5018858;28;20065;-77
2022/07/07 01:29:36;;;;;;;7.30;2.50;;;;;;;;;;5016422;28;20041;-75
2022/07/07 01:32:02;;;;;;;6.53;2.17;;;;;;;;;;5004351;28;20041;-76
2022/07/07 01:34:28;;;;;;;6.78;2.67;;;;;;;;;;5014380;28;20057;-75
2022/07/07 01:36:54;;;;;;;7.10;2.70;;;;;;;;;;5011408;28;20076;-76
2022/07/07 01:39:20;;;;;;;6.95;2.65;;;;;;;;;;5009932;28;20057;-76
2022/07/07 01:41:46;;;;;;;7.63;2.83;;;;;;;;;;5004500;28;20095;-75
2022/07/07 01:44:12;;;;;;;9.85;2.92;;;;;;;;;;5014464;28;20129;-75
2022/07/07 01:46:38;;;;;;;8.25;2.72;;;;;;;;;;5014372;28;20132;-76
2022/07/07 01:49:04;;;;;;;5.97;2.75;;;;;;;;;;5008814;28;20049;-75
2022/07/07 01:51:30;;;;;;;7.38;2.80;;;;;;;;;;5002220;28;20128;-75
2022/07/07 01:53:56;;;;;;;7.55;2.83;;;;;;;;;;5009689;28;20568;-75
2022/07/07 01:56:22;;;;;;;9.18;2.80;;;;;;;;;;5007005;28;20054;-75
2022/07/07 01:58:48;;;;;;;11.27;3.35;;;;;;;;;;5007433;28;20547;-75
2022/07/07 02:01:14;;;;;;;10.90;3.40;;;;;;;;;;5009367;28;20045;-75
2022/07/07 02:03:40;;;;;;;11.40;3.28;;;;;;;;;;5010338;28;20056;-75
2022/07/07 02:06:06;;;;;;;7.78;2.78;;;;;;;;;;5020839;28;20185;-75
2022/07/07 02:08:32;;;;;;;11.02;2.90;;;;;;;;;;5016695;28;20117;-75
2022/07/07 02:11:13;;;;;;;7.57;2.03;;;;;;;;;;5002976;28;20082;-75
2022/07/07 02:13:47;;;;;;;6.40;2.28;;;;;;;;;;5003260;28;20062;-75
2022/07/07 02:16:13;;;;;;;5.10;1.90;;;;;;;;;;5011584;28;20045;-74
2022/07/07 02:18:40;;;;;;;9.43;2.40;;;;;;;;;;5021442;28;20489;-75
2022/07/07 02:21:07;;;;;;;8.63;2.78;;;;;;;;;;5008428;28;20061;-75
2022/07/07 02:23:35;;;;;;;5.90;2.33;;;;;;;;;;5020529;28;20164;-74
2022/07/07 02:26:01;;;;;;;9.20;2.78;;;;;;;;;;5010783;28;20054;-74
2022/07/07 02:28:27;;;;;;;7.95;2.65;;;;;;;;;;5012781;28;20042;-75
2022/07/07 02:30:57;;;;;;;11.45;2.72;;;;;;;;;;5000853;28;20462;-75
2022/07/07 02:33:23;;;;;;;5.85;1.98;;;;;;;;;;5013076;28;20448;-75
2022/07/07 02:35:49;;;;;;;8.10;2.33;;;;;;;;;;5010199;28;20061;-75
2022/07/07 02:38:16;;;;;;;6.90;2.95;;;;;;;;;;5018105;28;20494;-74
2022/07/07 02:40:42;;;;;;;7.50;1.90;;;;;;;;;;5002353;28;20132;-75
2022/07/07 02:43:15;;;;;;;9.30;2.13;;;;;;;;;;5008380;28;20041;-75
2022/07/07 02:45:41;;;;;;;7.68;1.73;;;;;;;;;;5002275;28;20104;-75
2022/07/07 02:48:10;;;;;;;7.55;2.03;;;;;;;;;;5016539;28;20064;-75
2022/07/07 02:50:37;;;;;;;6.53;1.70;;;;;;;;;;5015941;28;20064;-75
2022/07/07 02:53:04;;;;;;;5.30;1.73;;;;;;;;;;5006518;28;20500;-75
2022/07/07 02:55:33;;;;;;;6.30;2.03;;;;;;;;;;5010921;28;20055;-75
2022/07/07 02:57:59;;;;;;;5.65;1.70;;;;;;;;;;5019617;28;20046;-75
2022/07/07 03:00:25;;;;;;;6.80;1.55;;;;;;;;;;5020671;28;20045;-75
2022/07/07 03:02:51;;;;;;;7.50;2.55;;;;;;;;;;5008275;28;20405;-75
2022/07/07 03:05:17;;;;;;;5.20;1.90;;;;;;;;;;5011652;28;20100;-74
2022/07/07 03:07:43;;;;;;;5.85;1.75;;;;;;;;;;5011485;28;20049;-75
2022/07/07 03:10:09;;;;;;;6.75;2.05;;;;;;;;;;5016835;28;20616;-74
2022/07/07 03:12:36;;;;;;;6.32;2.28;;;;;;;;;;5008536;28;20049;-74
2022/07/07 03:15:02;;;;;;;10.05;2.35;;;;;;;;;;5004166;28;20042;-75
2022/07/07 03:17:28;;;;;;;8.00;2.30;;;;;;;;;;5011252;28;20037;-75
2022/07/07 03:19:54;;;;;;;11.32;2.83;;;;;;;;;;5014105;28;20042;-75
2022/07/07 03:22:20;;;;;;;9.48;2.17;;;;;;;;;;5005253;28;20514;-75
2022/07/07 03:24:46;;;;;;;5.22;2.08;;;;;;;;;;5009767;28;20053;-74
2022/07/07 03:27:12;;;;;;;6.45;2.10;;;;;;;;;;4999388;28;20050;-75
2022/07/07 03:29:38;;;;;;;10.30;2.42;;;;;;;;;;5019039;28;20133;-75
2022/07/07 03:32:04;;;;;;;9.00;2.17;;;;;;;;;;4997575;28;20398;-75
2022/07/07 03:34:31;;;;;;;10.25;2.58;;;;;;;;;;5010356;28;21772;-75
2022/07/07 03:36:57;;;;;;;10.05;2.53;;;;;;;;;;5014392;28;20044;-76
2022/07/07 03:39:23;;;;;;;9.55;2.55;;;;;;;;;;5009391;28;20136;-75
2022/07/07 03:41:49;;;;;;;7.28;2.30;;;;;;;;;;5010040;28;20053;-75
2022/07/07 03:44:15;;;;;;;7.82;2.03;;;;;;;;;;5025150;28;20049;-75
2022/07/07 03:46:41;;;;;;;8.90;2.67;;;;;;;;;;5017192;28;20100;-75
2022/07/07 03:49:07;;;;;;;7.43;2.47;;;;;;;;;;5018179;28;20080;-74
2022/07/07 03:51:33;;;;;;;10.55;2.78;;;;;;;;;;5015133;28;20096;-75
2022/07/07 03:53:59;;;;;;;8.35;2.55;;;;;;;;;;5005475;28;20441;-75
2022/07/07 03:56:25;;;;;;;8.05;2.53;;;;;;;;;;4996474;28;20479;-75
2022/07/07 03:58:51;;;;;;;8.30;2.55;;;;;;;;;;5011554;28;20060;-75
2022/07/07 04:01:17;;;;;;;10.18;2.40;;;;;;;;;;5010786;28;20072;-75
2022/07/07 04:03:43;;;;;;;10.80;3.10;;;;;;;;;;5014250;28;20466;-74
2022/07/07 04:06:09;;;;;;;9.27;2.60;;;;;;;;;;5010746;28;20103;-74
2022/07/07 04:08:35;;;;;;;8.00;2.63;;;;;;;;;;5009217;28;20399;-75
2022/07/07 04:11:01;;;;;;;9.35;2.63;;;;;;;;;;5014323;28;20436;-75
2022/07/07 04:13:27;;;;;;;11.48;3.05;;;;;;;;;;5019038;28;20095;-75
2022/07/07 04:15:55;;;;;;;10.27;2.72;;;;;;;;;;5016178;28;20045;-75
2022/07/07 04:18:22;;;;;;;9.23;2.60;;;;;;;;;;5021484;28;20045;-75
2022/07/07 04:20:48;;;;;;;7.28;2.50;;;;;;;;;;5011081;28;20417;-75
2022/07/07 04:23:14;;;;;;;8.27;2.45;;;;;;;;;;5018370;28;20414;-75
2022/07/07 04:25:40;;;;;;;9.48;2.50;;;;;;;;;;5009101;28;20547;-74
2022/07/07 04:28:06;;;;;;;5.88;1.95;;;;;;;;;;5014505;28;20042;-75
2022/07/07 04:30:32;;;;;;;6.63;2.10;;;;;;;;;;5015805;28;20103;-75
2022/07/07 04:32:58;;;;;;;8.05;2.05;;;;;;;;;;5027610;28;20048;-75
2022/07/07 04:35:24;;;;;;;10.00;2.42;;;;;;;;;;5028956;28;20060;-75
2022/07/07 04:37:51;;;;;;;7.47;2.45;;;;;;;;;;5019023;28;20076;-75
2022/07/07 04:40:17;;;;;;;6.78;2.10;;;;;;;;;;5011619;28;20490;-75
2022/07/07 04:42:43;;;;;;;9.82;2.30;;;;;;;;;;5003719;28;20054;-75
2022/07/07 04:45:09;;;;;;;4.15;1.80;;;;;;;;;;5017867;28;20041;-75
2022/07/07 04:47:42;;;;;;;5.20;1.88;;;;;;;;;;5011051;28;20494;-74
2022/07/07 04:50:11;;;;;;;5.10;2.00;;;;;;;;;;5015934;28;20084;-75
2022/07/07 04:52:38;;;;;;;4.00;1.58;;;;;;;;;;5020968;28;20045;-75
2022/07/07 04:55:04;;;;;;;6.07;1.98;;;;;;;;;;5009604;28;20046;-75
2022/07/07 04:57:30;;;;;;;5.90;1.90;;;;;;;;;;5005444;28;20478;-75
2022/07/07 04:59:56;;;;;;;7.72;2.00;;;;;;;;;;5020657;28;20049;-75
2022/07/07 05:02:22;;;;;;;8.35;2.45;;;;;;;;;;5014007;28;20049;-75
2022/07/07 05:04:51;;;;;;;7.88;2.15;;;;;;;;;;5025611;28;20477;-75
2022/07/07 05:07:18;;;;;;;5.68;2.03;;;;;;;;;;5013936;28;20693;-75
2022/07/07 05:09:44;;;;;;;5.50;1.83;;;;;;;;;;5014037;28;20053;-75
2022/07/07 05:12:10;;;;;;;7.75;2.70;;;;;;;;;;5017833;28;20049;-75
2022/07/07 05:14:36;;;;;;;5.00;2.03;;;;;;;;;;5001334;28;20042;-75
2022/07/07 05:17:02;;;;;;;8.82;2.55;;;;;;;;;;5001022;28;20048;-75
2022/07/07 05:19:28;;;;;;;7.15;2.50;;;;;;;;;;5005328;28;20046;-75
2022/07/07 05:21:55;;;;;;;6.93;2.10;;;;;;;;;;5006605;28;20115;-75
2022/07/07 05:24:21;;;;;;;4.82;1.90;;;;;;;;;;5009354;28;20113;-75
2022/07/07 05:26:47;;;;;;;4.38;1.70;;;;;;;;;;5013837;28;20062;-75
2022/07/07 05:29:13;;;;;;;5.88;1.95;;;;;;;;;;5007554;28;20052;-75
2022/07/07 05:31:40;;;;;;;6.47;1.90;;;;;;;;;;5008840;28;20042;-75
2022/07/07 05:34:06;;;;;;;4.47;1.92;;;;;;;;;;5017419;28;20037;-75
2022/07/07 05:36:35;;;;;;;4.57;1.92;;;;;;;;;;5004390;28;20081;-76
2022/07/07 05:39:01;;;;;;;13.20;2.40;;;;;;;;;;5002853;28;20060;-77
2022/07/07 05:41:27;;;;;;;5.55;2.13;;;;;;;;;;5013970;28;20494;-76
2022/07/07 05:43:54;;;;;;;5.53;1.90;;;;;;;;;;5003580;28;20045;-76
2022/07/07 05:46:20;;;;;;;4.82;1.95;;;;;;;;;;5002485;28;20493;-77
2022/07/07 05:48:46;;;;;;;5.70;2.03;;;;;;;;;;5009274;28;20045;-75
2022/07/07 05:51:13;;;;;;;7.95;1.90;;;;;;;;;;5016948;28;20057;-77
2022/07/07 05:53:39;;;;;;;7.20;1.85;;;;;;;;;;5004614;28;20042;-78
2022/07/07 05:56:05;;;;;;;7.25;2.10;;;;;;;;;;5008350;28;20041;-78
2022/07/07 05:58:31;;;;;;;5.22;1.83;;;;;;;;;;5002467;28;20096;-78
2022/07/07 06:00:57;;;;;;;7.75;2.13;;;;;;;;;;5006512;28;20054;-78
2022/07/07 06:03:23;;;;;;;7.15;2.00;;;;;;;;;;5006357;28;20544;-77
2022/07/07 06:05:49;;;;;;;6.90;2.17;;;;;;;;;;5004465;28;20037;-86
2022/07/07 06:08:17;;;;;;;7.63;2.70;;;;;;;;;;5007057;28;20042;-77
2022/07/07 06:10:46;;;;;;;10.32;2.47;;;;;;;;;;5007924;28;20044;-76
2022/07/07 06:13:12;;;;;;;8.40;2.65;;;;;;;;;;5015593;28;20042;-78
2022/07/07 06:15:38;;;;;;;7.20;2.10;;;;;;;;;;5009660;28;20046;-78
2022/07/07 06:18:05;;;;;;;7.32;2.30;;;;;;;;;;5008440;28;20120;-78
2022/07/07 06:20:31;;;;;;;8.27;2.10;;;;;;;;;;5008591;28;20049;-78
2022/07/07 06:22:57;;;;;;;4.72;1.98;;;;;;;;;;5007428;28;20057;-77
2022/07/07 06:25:26;;;;;;;9.35;2.47;;;;;;;;;;5008056;28;20137;-78
2022/07/07 06:27:52;;;;;;;5.85;1.90;;;;;;;;;;5000172;28;20105;-79
2022/07/07 06:30:18;;;;;;;6.30;2.15;;;;;;;;;;5007627;28;20041;-77
2022/07/07 06:32:44;;;;;;;8.20;2.47;;;;;;;;;;5005738;28;20044;-77
2022/07/07 06:35:10;;;;;;;6.53;2.28;;;;;;;;;;5006330;28;20124;-77
2022/07/07 06:37:36;;;;;;;8.55;2.42;;;;;;;;;;5006354;28;20042;-77
2022/07/07 06:40:02;;;;;;;7.32;2.22;;;;;;;;;;5004787;28;20045;-77
2022/07/07 06:42:31;;;;;;;7.90;2.00;;;;;;;;;;5006847;28;20046;-77
2022/07/07 06:44:57;;;;;;;9.02;2.28;;;;;;;;;;5010084;28;20049;-78
2022/07/07 06:47:24;;;;;;;10.60;2.10;;;;;;;;;;5009510;28;20049;-77
2022/07/07 06:49:50;;;;;;;6.25;2.05;;;;;;;;;;5006751;28;20037;-76
2022/07/07 06:52:16;;;;;;;5.70;2.35;;;;;;;;;;5006884;28;20516;-77
2022/07/07 06:54:42;;;;;;;7.10;2.15;;;;;;;;;;5008424;28;20448;-77
2022/07/07 06:57:09;;;;;;;5.88;1.70;;;;;;;;;;4999281;28;20392;-77
2022/07/07 06:59:36;;;;;;;5.60;1.95;;;;;;;;;;5007580;28;20490;-77
2022/07/07 07:02:05;;;;;;;6.63;2.20;;;;;;;;;;5006792;28;20037;-77
2022/07/07 07:04:31;;;;;;;7.28;2.05;;;;;;;;;;5008869;28;20099;-77
2022/07/07 07:06:57;;;;;;;6.53;2.10;;;;;;;;;;5008367;28;20046;-77
2022/07/07 07:09:24;;;;;;;5.75;2.10;;;;;;;;;;5006915;28;20092;-78
2022/07/07 07:11:51;;;;;;;9.23;2.50;;;;;;;;;;5006950;28;20053;-77
2022/07/07 07:14:17;;;;;;;4.68;1.50;;;;;;;;;;5008614;28;20052;-78
2022/07/07 07:16:43;;;;;;;4.97;1.63;;;;;;;;;;5002789;28;20050;-78
2022/07/07 07:19:09;;;;;;;5.22;1.80;;;;;;;;;;5009424;28;20042;-77
2022/07/07 07:21:35;;;;;;;6.38;2.20;;;;;;;;;;5008108;28;20498;-78
2022/07/07 07:24:01;;;;;;;8.43;2.35;;;;;;;;;;5004648;28;20092;-77
2022/07/07 07:26:27;;;;;;;6.75;2.10;;;;;;;;;;5008102;28;20046;-77
2022/07/07 07:28:53;;;;;;;5.38;1.70;;;;;;;;;;5008639;28;20049;-77
2022/07/07 07:31:19;;;;;;;5.28;1.80;;;;;;;;;;5006440;28;20050;-78
2022/07/07 07:33:47;;;;;;;7.30;2.40;;;;;;;;;;5007887;28;20042;-78
2022/07/07 07:36:13;;;;;;;5.97;1.95;;;;;;;;;;5007862;28;20096;-77
2022/07/07 07:38:40;;;;;;;5.95;2.15;;;;;;;;;;5010272;28;20367;-77
2022/07/07 07:41:10;;;;;;;6.03;2.22;;;;;;;;;;5010817;28;20046;-77
2022/07/07 07:43:37;;;;;;;9.30;2.55;;;;;;;;;;5010762;28;20451;-78
2022/07/07 07:46:03;;;;;;;9.93;2.38;;;;;;;;;;5003034;28;20049;-78
2022/07/07 07:48:29;;;;;;;9.40;2.80;;;;;;;;;;5009646;28;20053;-79
2022/07/07 07:50:55;;;;;;;5.82;1.83;;;;;;;;;;5009941;28;20038;-78
2022/07/07 07:53:21;;;;;;;4.00;1.73;;;;;;;;;;5010125;28;20054;-79
2022/07/07 07:55:47;;;;;;;2.67;1.58;;;;;;;;;;5011386;28;20046;-79
2022/07/07 07:58:13;;;;;;;3.00;1.40;;;;;;;;;;5007208;28;20046;-78
2022/07/07 08:00:39;;;;;;;3.05;1.58;;;;;;;;;;5009405;28;20092;-77
2022/07/07 08:03:05;;;;;;;3.88;1.75;;;;;;;;;;5008106;28;20050;-78
2022/07/07 08:05:31;;;;;;;5.45;2.10;;;;;;;;;;5009378;28;20831;-77
2022/07/07 08:07:57;;;;;;;5.50;1.75;;;;;;;;;;5010756;28;20050;-78
2022/07/07 08:10:23;;;;;;;4.82;1.85;;;;;;;;;;5009661;28;20081;-77
2022/07/07 08:12:49;;;;;;;6.85;3.13;;;;;;;;;;5008382;28;20038;-78
2022/07/07 08:15:18;;;;;;;4.93;1.70;;;;;;;;;;5010718;28;20050;-78
2022/07/07 08:17:45;;;;;;;3.67;1.73;;;;;;;;;;5009425;28;21025;-78
2022/07/07 08:20:11;;;;;;;2.72;1.60;;;;;;;;;;5009039;28;20135;-78
2022/07/07 08:22:38;;;;;;;3.55;1.92;;;;;;;;;;5011161;28;20490;-78
2022/07/07 08:25:04;;;;;;;4.38;1.88;;;;;;;;;;5010203;28;20058;-78
2022/07/07 08:27:30;;;;;;;4.30;1.63;;;;;;;;;;5010347;28;20100;-78
2022/07/07 08:30:00;;;;;;;4.78;1.85;;;;;;;;;;5011323;28;20069;-78
2022/07/07 08:32:26;;;;;;;5.97;1.95;;;;;;;;;;5010372;28;20100;-78
2022/07/07 08:34:52;;;;;;;7.28;2.00;;;;;;;;;;5002716;28;20100;-78
2022/07/07 08:37:18;;;;;;;6.60;1.98;;;;;;;;;;5010083;28;20054;-77
2022/07/07 08:39:44;;;;;;;6.07;2.25;;;;;;;;;;5009171;28;20072;-78
2022/07/07 08:42:11;;;;;;;6.20;2.40;;;;;;;;;;5009158;28;20094;-78
2022/07/07 08:44:37;;;;;;;7.80;2.85;;;;;;;;;;5008840;28;20370;-78
2022/07/07 08:47:03;;;;;;;5.22;1.67;;;;;;;;;;5011096;28;20045;-78
2022/07/07 08:49:30;;;;;;;10.52;2.10;;;;;;;;;;5007684;28;20050;-78
2022/07/07 08:51:56;;;;;;;5.05;1.73;;;;;;;;;;5008618;28;20044;-77
2022/07/07 08:54:23;;;;;;;6.22;1.70;;;;;;;;;;5009874;28;20088;-78
2022/07/07 08:56:49;;;;;;;4.20;1.80;;;;;;;;;;5011708;28;20041;-77
2022/07/07 08:59:15;;;;;;;3.80;1.60;;;;;;;;;;5005483;28;20137;-79
2022/07/07 09:01:52;;;;;;;4.30;1.60;;;;;;;;;;5004589;28;20092;-79
2022/07/07 09:04:18;;;;;;;5.88;2.03;;;;;;;;;;5010224;28;20042;-78
2022/07/07 09:06:59;;;;;;;4.72;1.73;;;;;;;;;;5009878;28;20124;-77
2022/07/07 09:09:29;;;;;;;7.30;1.90;;;;;;;;;;5006232;28;20560;-78
2022/07/07 09:12:01;;;;;;;8.60;2.72;;;;;;;;;;5010126;28;20096;-78
2022/07/07 09:14:34;;;;;;;6.88;2.60;;;;;;;;;;5003819;28;20477;-79
2022/07/07 09:17:00;;;;;;;5.97;1.95;;;;;;;;;;5009407;28;20049;-79
2022/07/07 09:19:26;;;;;;;4.60;1.92;;;;;;;;;;5010097;28;20037;-78
2022/07/07 09:21:52;;;;;;;6.45;1.98;;;;;;;;;;5010665;28;20077;-78
2022/07/07 09:24:18;;;;;;;3.70;1.92;;;;;;;;;;5008880;28;20045;-78
2022/07/07 09:26:45;;;;;;;5.45;2.17;;;;;;;;;;5009896;28;20129;-78
2022/07/07 09:29:20;;;;;;;8.15;2.30;;;;;;;;;;5007889;28;20038;-79
2022/07/07 09:31:51;;;;;;;4.93;1.92;;;;;;;;;;5010127;28;20049;-78
2022/07/07 09:34:18;;;;;;;3.65;1.95;;;;;;;;;;5009385;28;20580;-78
2022/07/07 09:39:41;;;;;;;6.00;2.00;;;;;;;;;;5003327;28;20054;-78
2022/07/07 09:42:23;;;;;;;6.95;2.17;;;;;;;;;;5010414;28;20054;-77
2022/07/07 09:44:50;;;;;;;8.82;2.50;;;;;;;;;;5008820;28;20065;-77
2022/07/07 09:47:16;;;;;;;8.27;2.80;;;;;;;;;;5009609;28;20049;-78
2022/07/07 09:49:43;;;;;;;7.88;2.80;;;;;;;;;;5008875;28;20490;-77
2022/07/07 09:52:16;;;;;;;7.60;2.85;;;;;;;;;;5005598;28;20490;-77
2022/07/07 09:54:46;;;;;;;10.32;3.42;;;;;;;;;;5005704;28;20046;-78
2022/07/07 09:57:13;;;;;;;9.27;3.08;;;;;;;;;;5008560;28;20092;-77
2022/07/07 09:59:41;;;;;;;8.70;3.05;;;;;;;;;;5007338;28;20037;-78
2022/07/07 10:02:08;;;;;;;11.07;3.67;;;;;;;;;;5006649;28;20092;-77
2022/07/07 10:04:35;;;;;;;7.93;2.47;;;;;;;;;;5006973;28;20075;-78
2022/07/07 10:07:02;;;;;;;9.95;3.20;;;;;;;;;;5009392;28;20046;-78
2022/07/07 10:09:27;;;;;;;9.98;2.70;;;;;;;;;;5006276;28;20046;-77
2022/07/07 10:11:54;;;;;;;5.20;2.10;;;;;;;;;;5007209;28;20522;-77
2022/07/07 10:14:21;;;;;;;5.15;2.20;;;;;;;;;;5007654;28;20102;-77
2022/07/07 10:16:49;;;;;;;6.30;2.20;;;;;;;;;;5009010;28;20042;-77
2022/07/07 10:19:16;;;;;;;5.43;2.25;;;;;;;;;;5005018;28;20077;-77
2022/07/07 10:21:44;;;;;;;4.60;2.03;;;;;;;;;;5007923;28;20046;-77
2022/07/07 10:24:10;;;;;;;4.85;1.85;;;;;;;;;;5001978;28;20050;-77
2022/07/07 10:26:37;;;;;;;8.00;2.75;;;;;;;;;;5008618;28;20041;-77
2022/07/07 10:29:04;;;;;;;6.43;2.20;;;;;;;;;;5008243;28;20052;-78
2022/07/07 10:31:30;;;;;;;6.20;2.40;;;;;;;;;;5009832;28;20119;-78
2022/07/07 10:34:10;;;;;;;6.65;2.40;;;;;;;;;;5008526;28;20073;-77
2022/07/07 10:36:52;;;;;;;7.40;2.63;;;;;;;;;;5009704;28;20042;-77
2022/07/07 10:39:21;;;;;;;5.60;2.40;;;;;;;;;;5007026;28;20081;-77
2022/07/07 10:42:00;;;;;;;7.53;2.30;;;;;;;;;;5008098;28;20045;-77
2022/07/07 10:44:27;;;;;;;8.82;3.00;;;;;;;;;;5008101;28;20383;-79
2022/07/07 10:47:00;;;;;;;7.47;2.67;;;;;;;;;;5007284;28;20046;-78
2022/07/07 10:49:26;;;;;;;;;;;;;;;;;;5009981;28;20042;-78
2022/07/07 10:51:58;;;;;;;9.80;2.35;;;;;;;;;;5009944;28;19948;-77
2022/07/07 10:54:35;;;;;;;10.43;2.95;;;;;;;;;;5005986;28;20062;-78
2022/07/07 10:57:01;;;;;;;8.10;2.83;;;;;;;;;;5005550;28;20058;-78
2022/07/07 10:59:27;;;;;;;12.40;2.95;;;;;;;;;;5003678;28;20124;-78
2022/07/07 11:02:02;;;;;;;8.77;3.03;;;;;;;;;;5002534;28;20044;-78
2022/07/07 11:04:37;;;;;;;14.15;3.15;;;;;;;;;;5004600;28;20038;-78
2022/07/07 11:07:11;;;;;;;10.57;2.88;;;;;;;;;;5008018;28;20046;-77
2022/07/07 11:09:36;;;;;;;;;;;;;;;;;;5002097;28;20034;-78
2022/07/07 11:12:21;;;;;;;10.00;2.88;;;;;;;;;;5009203;28;20003;-78
2022/07/07 11:15:07;;;;;;;6.88;2.60;;;;;;;;;;5005249;28;20053;-78
2022/07/07 11:17:36;;;;;;;10.57;3.10;;;;;;;;;;5011357;28;20469;-78
2022/07/07 11:20:07;;;;;;;12.80;3.08;;;;;;;;;;5010032;28;20076;-78
2022/07/07 11:22:46;;;;;;;10.75;2.75;;;;;;;;;;5009814;28;20490;-78
2022/07/07 11:25:13;;;;;;;10.52;2.80;;;;;;;;;;5008791;28;20852;-78
2022/07/07 11:27:39;;;;;;;6.85;2.45;;;;;;;;;;5012039;28;20069;-78
2022/07/07 11:30:05;;;;;;;9.27;2.75;;;;;;;;;;5009300;28;20076;-77
2022/07/07 11:32:42;;;;;;;10.60;2.70;;;;;;;;;;5010051;28;20129;-77
2022/07/07 11:35:09;;;;;;;7.93;2.55;;;;;;;;;;5011378;28;20057;-78
2022/07/07 11:37:37;;;;;;;10.02;2.88;;;;;;;;;;5006137;28;20160;-78
2022/07/07 11:40:04;;;;;;;11.35;2.88;;;;;;;;;;5010452;28;20493;-78
2022/07/07 11:42:37;;;;;;;11.02;3.25;;;;;;;;;;5011715;28;20046;-77
2022/07/07 11:45:04;;;;;;;8.02;2.83;;;;;;;;;;5012011;28;20381;-79
2022/07/07 11:47:33;;;;;;;7.70;2.72;;;;;;;;;;5007378;28;20389;-78
2022/07/07 11:50:00;;;;;;;8.95;3.05;;;;;;;;;;5007194;28;20096;-78
2022/07/07 11:52:26;;;;;;;8.10;2.72;;;;;;;;;;5010929;28;20045;-78
2022/07/07 11:54:52;;;;;;;6.70;2.75;;;;;;;;;;5012846;28;20442;-78
2022/07/07 11:57:27;;;;;;;9.27;2.50;;;;;;;;;;5011904;28;20069;-79
2022/07/07 11:59:53;;;;;;;9.63;2.90;;;;;;;;;;5009832;28;20049;-77
2022/07/07 12:02:19;;;;;;;8.40;2.70;;;;;;;;;;5008712;28;20494;-78
2022/07/07 12:04:46;;;;;;;10.65;2.92;;;;;;;;;;5009848;28;20046;-77
2022/07/07 12:07:12;;;;;;;11.23;2.90;;;;;;;;;;5010836;28;20042;-77
2022/07/07 12:09:38;;;;;;;8.73;2.90;;;;;;;;;;5010936;28;20054;-77
2022/07/07 12:12:04;;;;;;;9.32;3.00;;;;;;;;;;5009369;28;20099;-78
2022/07/07 12:14:32;;;;;;;10.93;2.40;;;;;;;;;;5009471;28;20049;-77
2022/07/07 12:16:58;;;;;;;10.27;2.90;;;;;;;;;;5011666;28;20053;-77
2022/07/07 12:19:24;;;;;;;12.27;2.80;;;;;;;;;;5008772;28;20401;-77
2022/07/07 12:21:51;;;;;;;8.55;2.55;;;;;;;;;;5011615;28;20053;-78
2022/07/07 12:24:21;;;;;;;5.32;2.22;;;;;;;;;;5009677;28;20061;-77
2022/07/07 12:26:49;;;;;;;5.65;2.22;;;;;;;;;;5010462;28;20054;-78
2022/07/07 12:29:20;;;;;;;8.25;2.70;;;;;;;;;;5010391;28;20164;-77
2022/07/07 12:31:46;;;;;;;8.52;3.10;;;;;;;;;;5009516;28;20056;-77
2022/07/07 12:34:13;;;;;;;6.85;2.40;;;;;;;;;;5010934;28;20091;-77
2022/07/07 12:36:40;;;;;;;7.97;2.45;;;;;;;;;;5004530;28;20041;-77
2022/07/07 12:39:06;;;;;;;5.63;2.30;;;;;;;;;;5008611;28;20049;-78
2022/07/07 12:41:33;;;;;;;7.90;2.83;;;;;;;;;;5007819;28;20104;-77
2022/07/07 12:44:26;;;;;;;7.38;2.38;;;;;;;;;;5010690;28;20494;-78
2022/07/07 12:46:56;;;;;;;7.82;2.58;;;;;;;;;;5007849;28;20057;-78
2022/07/07 12:49:22;;;;;;;9.20;3.08;;;;;;;;;;5009341;28;20057;-77
2022/07/07 12:51:51;;;;;;;5.80;2.50;;;;;;;;;;5010681;28;20060;-77
2022/07/07 12:54:35;;;;;;;8.02;2.90;;;;;;;;;;5009926;28;20441;-78
2022/07/07 12:57:03;;;;;;;6.15;2.40;;;;;;;;;;5008753;28;20046;-77
2022/07/07 12:59:35;;;;;;;6.88;2.45;;;;;;;;;;5011066;28;20048;-77
2022/07/07 13:02:01;;;;;;;7.43;2.30;;;;;;;;;;5004137;28;20046;-78
2022/07/07 13:04:27;;;;;;;7.90;2.75;;;;;;;;;;5008600;28;20054;-78
2022/07/07 13:06:54;;;;;;;8.32;2.60;;;;;;;;;;5009691;28;20038;-77
2022/07/07 13:09:20;;;;;;;7.93;2.85;;;;;;;;;;5009512;28;20045;-78
2022/07/07 13:11:50;;;;;;;5.63;2.15;;;;;;;;;;5009085;28;20578;-77
2022/07/07 13:14:16;;;;;;;4.75;2.30;;;;;;;;;;5007434;28;20256;-77
2022/07/07 13:16:42;;;;;;;6.22;2.58;;;;;;;;;;5009276;28;20547;-78
2022/07/07 13:19:08;;;;;;;9.63;2.55;;;;;;;;;;5008254;28;20103;-77
2022/07/07 13:21:34;;;;;;;7.43;2.90;;;;;;;;;;5009407;28;20087;-77
2022/07/07 13:24:00;;;;;;;7.72;2.38;;;;;;;;;;5007430;28;20081;-77
2022/07/07 13:26:26;;;;;;;9.35;2.65;;;;;;;;;;5010004;28;20033;-78
2022/07/07 13:28:52;;;;;;;8.57;2.90;;;;;;;;;;5008596;28;20057;-77
2022/07/07 13:31:18;;;;;;;8.82;2.55;;;;;;;;;;5008905;28;20053;-78
2022/07/07 13:33:44;;;;;;;7.05;2.42;;;;;;;;;;5010152;28;20124;-78
2022/07/07 13:36:10;;;;;;;7.80;2.70;;;;;;;;;;5010203;28;20042;-77
2022/07/07 13:38:36;;;;;;;10.13;3.15;;;;;;;;;;5005171;28;20169;-77
2022/07/07 13:41:03;;;;;;;7.65;2.42;;;;;;;;;;5010740;28;20129;-79
2022/07/07 13:43:29;;;;;;;6.63;2.30;;;;;;;;;;5003745;28;20492;-77
2022/07/07 13:45:55;;;;;;;3.85;2.15;;;;;;;;;;5006605;28;20502;-78
2022/07/07 13:48:22;;;;;;;5.22;2.20;;;;;;;;;;5008391;28;20133;-78
2022/07/07 13:50:49;;;;;;;7.70;2.30;;;;;;;;;;5008791;28;20168;-77
2022/07/07 13:53:15;;;;;;;6.18;2.40;;;;;;;;;;5007126;28;20049;-79
2022/07/07 13:55:41;;;;;;;6.85;2.50;;;;;;;;;;5010347;28;20069;-79
2022/07/07 13:58:07;;;;;;;8.48;2.40;;;;;;;;;;5006804;28;20037;-80
2022/07/07 14:00:33;;;;;;;7.85;2.63;;;;;;;;;;5008168;28;20050;-80
2022/07/07 14:02:59;;;;;;;7.45;2.70;;;;;;;;;;5006248;28;20132;-79
2022/07/07 14:05:26;;;;;;;9.55;2.75;;;;;;;;;;5010181;28;20073;-79
2022/07/07 14:07:52;;;;;;;8.30;2.67;;;;;;;;;;5008848;28;20048;-81
2022/07/07 14:10:19;;;;;;;8.63;2.50;;;;;;;;;;5010053;28;20052;-80
2022/07/07 14:12:45;;;;;;;5.40;2.50;;;;;;;;;;5008223;28;20042;-80
2022/07/07 14:15:11;;;;;;;7.25;2.50;;;;;;;;;;5009032;28;20045;-80
2022/07/07 14:17:37;;;;;;;7.25;2.17;;;;;;;;;;5024791;28;20078;-80
2022/07/07 14:20:04;;;;;;;5.40;2.10;;;;;;;;;;5007690;28;20045;-80
2022/07/07 14:22:30;;;;;;;8.93;2.83;;;;;;;;;;5007568;28;20057;-79
2022/07/07 14:24:56;;;;;;;6.25;2.53;;;;;;;;;;5006082;28;20160;-79
2022/07/07 14:27:23;;;;;;;8.27;2.42;;;;;;;;;;5009349;28;20049;-80
2022/07/07 14:29:49;;;;;;;7.90;2.35;;;;;;;;;;5004430;28;20074;-81
2022/07/07 14:32:15;;;;;;;6.30;1.98;;;;;;;;;;5007900;28;20041;-81
2022/07/07 14:34:41;;;;;;;7.82;2.45;;;;;;;;;;5007112;28;20057;-78
2022/07/07 14:37:07;;;;;;;7.55;2.25;;;;;;;;;;5008585;28;20486;-77
2022/07/07 14:39:33;;;;;;;8.70;2.42;;;;;;;;;;5008947;28;20103;-78
2022/07/07 14:41:59;;;;;;;9.25;2.33;;;;;;;;;;5008357;28;20042;-79
2022/07/07 14:44:25;;;;;;;8.38;2.40;;;;;;;;;;5008688;28;20100;-78